createdAt,value
2023-01-29T00:01:34.970Z,9.30
2023-01-29T00:04:01.867Z,11.50
2023-01-29T00:06:28.785Z,11.00
2023-01-29T00:08:55.729Z,11.40
2023-01-29T00:11:24.783Z,11.50
2023-01-29T00:13:52.829Z,10.30
2023-01-29T00:16:20.427Z,12.20
2023-01-29T00:18:47.307Z,13.10
2023-01-29T00:21:17.548Z,11.00
2023-01-29T00:23:45.173Z,12.20
2023-01-29T00:26:12.280Z,11.60
2023-01-29T00:28:39.683Z,12.60
2023-01-29T00:31:12.517Z,11.40
2023-01-29T00:33:39.608Z,11.90
2023-01-29T00:36:10.387Z,13.50
2023-01-29T00:38:38.200Z,13.20
2023-01-29T00:41:29.072Z,14.10
2023-01-29T00:44:15.140Z,13.80
2023-01-29T00:46:42.333Z,15.10
2023-01-29T00:49:09.465Z,15.40
2023-01-29T00:51:37.439Z,14.50
2023-01-29T00:54:06.302Z,13.70
2023-01-29T00:56:37.001Z,16.20
2023-01-29T00:59:04.127Z,14.00
2023-01-29T01:01:49.813Z,14.70
2023-01-29T01:04:16.797Z,14.10
2023-01-29T01:06:43.691Z,16.00
2023-01-29T01:09:29.180Z,16.90
2023-01-29T01:11:56.135Z,16.80
2023-01-29T01:14:23.052Z,18.30
2023-01-29T01:16:50.017Z,16.80
2023-01-29T01:19:17.146Z,21.60
2023-01-29T01:21:46.467Z,15.40
2023-01-29T01:24:13.514Z,16.90
2023-01-29T01:26:40.597Z,19.10
2023-01-29T01:29:07.637Z,19.20
2023-01-29T01:31:34.651Z,19.90
2023-01-29T01:34:01.708Z,21.40
2023-01-29T01:36:28.752Z,20.80
2023-01-29T01:38:55.672Z,19.80
2023-01-29T01:41:23.523Z,19.90
2023-01-29T01:44:01.019Z,23.10
2023-01-29T01:46:29.327Z,22.50
2023-01-29T01:49:15.455Z,20.40
2023-01-29T01:51:46.704Z,20.90
2023-01-29T01:54:28.010Z,19.30
2023-01-29T01:57:08.789Z,19.30
2023-01-29T01:59:37.560Z,18.90
2023-01-29T02:02:25.041Z,20.20
2023-01-29T02:05:11.506Z,16.40
2023-01-29T02:08:03.441Z,20.00
2023-01-29T02:10:37.168Z,21.50
2023-01-29T02:13:06.862Z,21.50
2023-01-29T02:15:33.875Z,20.30
2023-01-29T02:18:02.749Z,24.40
2023-01-29T02:20:34.465Z,23.80
2023-01-29T02:23:26.598Z,24.00
2023-01-29T02:26:21.122Z,24.10
2023-01-29T02:29:21.619Z,22.50
2023-01-29T02:31:56.396Z,26.50
2023-01-29T02:34:53.849Z,22.10
2023-01-29T02:37:37.716Z,18.10
2023-01-29T02:40:22.317Z,19.00
2023-01-29T02:43:18.660Z,19.10
2023-01-29T02:45:56.137Z,20.50
2023-01-29T02:48:26.294Z,20.80
2023-01-29T02:51:08.236Z,19.80
2023-01-29T02:53:46.000Z,22.40
2023-01-29T02:56:17.849Z,23.10
2023-01-29T02:58:58.506Z,21.10
2023-01-29T03:01:32.516Z,20.30
2023-01-29T03:04:06.004Z,21.00
2023-01-29T03:06:40.751Z,20.10
2023-01-29T03:09:14.302Z,18.30
2023-01-29T03:11:44.605Z,20.90
2023-01-29T03:14:16.568Z,20.30
2023-01-29T03:16:52.416Z,19.50
2023-01-29T03:19:26.975Z,20.80
2023-01-29T03:22:00.508Z,16.50
2023-01-29T03:25:02.519Z,20.00
2023-01-29T03:30:43.566Z,15.20
2023-01-29T03:33:32.154Z,19.70
2023-01-29T03:36:06.456Z,21.50
2023-01-29T03:38:33.559Z,21.30
2023-01-29T03:41:32.522Z,19.60
2023-01-29T03:44:30.128Z,19.80
2023-01-29T03:47:08.000Z,16.90
2023-01-29T03:50:02.426Z,23.80
2023-01-29T03:52:56.266Z,20.40
2023-01-29T03:56:03.121Z,22.90
2023-01-29T03:58:52.382Z,19.40
2023-01-29T04:01:44.166Z,20.00
2023-01-29T04:04:20.218Z,18.90
2023-01-29T04:06:50.525Z,20.00
2023-01-29T04:09:24.447Z,19.40
2023-01-29T04:12:04.012Z,21.50
2023-01-29T04:14:32.449Z,20.30
2023-01-29T04:17:02.966Z,21.80
2023-01-29T04:19:45.300Z,19.40
2023-01-29T04:22:18.503Z,21.60
2023-01-29T04:24:47.482Z,19.30
2023-01-29T04:27:56.503Z,21.80
2023-01-29T04:30:44.186Z,20.20
2023-01-29T04:33:14.199Z,18.20
2023-01-29T04:36:10.903Z,21.10
2023-01-29T04:39:29.022Z,17.90
2023-01-29T04:42:04.998Z,21.10
2023-01-29T04:44:50.810Z,21.80
2023-01-29T04:47:43.238Z,19.50
2023-01-29T04:50:10.160Z,19.20
2023-01-29T04:53:14.247Z,21.20
2023-01-29T04:55:44.165Z,21.20
2023-01-29T04:58:14.319Z,20.30
2023-01-29T05:00:43.806Z,19.40
2023-01-29T05:03:14.165Z,18.10
2023-01-29T05:05:44.180Z,17.10
2023-01-29T05:08:18.741Z,18.20
2023-01-29T05:10:51.201Z,18.30
2023-01-29T05:13:20.989Z,21.10
2023-01-29T05:16:00.003Z,21.00
2023-01-29T05:18:29.048Z,18.60
2023-01-29T05:20:59.490Z,18.10
2023-01-29T05:23:26.491Z,20.70
2023-01-29T05:25:53.704Z,19.90
2023-01-29T05:28:20.691Z,17.90
2023-01-29T05:30:50.324Z,21.10
2023-01-29T05:33:24.577Z,17.00
2023-01-29T05:35:51.809Z,16.70
2023-01-29T05:38:19.532Z,19.20
2023-01-29T05:40:46.800Z,17.40
2023-01-29T05:43:24.589Z,21.70
2023-01-29T05:46:01.291Z,17.50
2023-01-29T05:48:29.319Z,16.10
2023-01-29T05:51:00.803Z,17.80
2023-01-29T05:53:31.881Z,19.90
2023-01-29T05:56:03.573Z,17.70
2023-01-29T05:58:31.732Z,18.50
2023-01-29T06:01:27.279Z,17.80
2023-01-29T06:03:54.381Z,17.50
2023-01-29T06:06:21.795Z,18.00
2023-01-29T06:08:49.018Z,17.90
2023-01-29T06:11:17.721Z,18.60
2023-01-29T06:13:45.446Z,16.90
2023-01-29T06:16:13.669Z,16.90
2023-01-29T06:18:41.384Z,19.60
2023-01-29T06:21:11.893Z,17.70
2023-01-29T06:23:39.649Z,15.60
2023-01-29T06:26:10.344Z,20.00
2023-01-29T06:28:37.398Z,14.70
2023-01-29T06:33:53.183Z,13.20
2023-01-29T06:36:20.294Z,14.70
2023-01-29T06:38:47.712Z,15.50
2023-01-29T06:41:18.248Z,15.30
2023-01-29T06:43:45.656Z,15.40
2023-01-29T06:46:13.373Z,15.60
2023-01-29T06:48:40.367Z,16.00
2023-01-29T06:51:09.228Z,12.80
2023-01-29T06:53:37.922Z,14.50
2023-01-29T06:56:06.118Z,15.50
2023-01-29T06:58:35.591Z,13.00
2023-01-29T07:01:08.093Z,16.90
2023-01-29T07:03:35.775Z,15.00
2023-01-29T07:06:03.048Z,16.20
2023-01-29T07:08:30.233Z,11.70
2023-01-29T07:11:00.670Z,17.30
2023-01-29T07:13:28.021Z,19.70
2023-01-29T07:15:59.293Z,14.70
2023-01-29T07:18:27.500Z,15.70
2023-01-29T07:20:54.781Z,17.10
2023-01-29T07:23:22.501Z,15.60
2023-01-29T07:25:49.782Z,12.80
2023-01-29T07:28:17.832Z,15.10
2023-01-29T07:30:45.095Z,14.20
2023-01-29T07:33:12.322Z,14.90
2023-01-29T07:35:41.753Z,15.50
2023-01-29T07:38:10.469Z,12.90
2023-01-29T07:40:37.413Z,16.80
2023-01-29T07:43:06.428Z,14.00
2023-01-29T07:45:35.918Z,15.10
2023-01-29T07:48:07.180Z,18.60
2023-01-29T07:50:35.352Z,15.20
2023-01-29T07:53:02.626Z,13.30
2023-01-29T07:55:29.813Z,13.80
2023-01-29T07:57:58.216Z,14.40
2023-01-29T08:00:25.465Z,13.60
2023-01-29T08:02:52.482Z,14.50
2023-01-29T08:05:19.881Z,13.50
2023-01-29T08:08:05.697Z,15.10
2023-01-29T08:10:34.963Z,16.00
2023-01-29T08:13:03.262Z,14.70
2023-01-29T08:15:30.745Z,12.30
2023-01-29T08:17:58.547Z,14.60
2023-01-29T08:20:25.886Z,15.50
2023-01-29T08:23:00.673Z,13.90
2023-01-29T08:25:28.324Z,14.40
2023-01-29T08:27:58.805Z,16.20
2023-01-29T08:30:28.074Z,14.40
2023-01-29T08:32:55.116Z,11.50
2023-01-29T08:35:22.510Z,13.50
2023-01-29T08:37:58.744Z,10.80
2023-01-29T08:40:27.229Z,15.10
2023-01-29T08:43:01.501Z,15.10
2023-01-29T08:45:29.900Z,15.40
2023-01-29T08:47:56.841Z,13.50
2023-01-29T08:50:23.899Z,12.60
2023-01-29T08:52:50.994Z,11.30
2023-01-29T08:55:18.313Z,13.80
2023-01-29T08:57:45.529Z,13.50
2023-01-29T09:00:13.083Z,12.80
2023-01-29T09:02:40.088Z,18.80
2023-01-29T09:05:07.791Z,13.50
2023-01-29T09:07:34.758Z,17.00
2023-01-29T09:10:02.700Z,20.50
2023-01-29T09:12:30.125Z,14.50
2023-01-29T09:14:57.091Z,12.90
2023-01-29T09:17:24.017Z,13.00
2023-01-29T09:19:52.479Z,15.40
2023-01-29T09:22:20.495Z,15.00
2023-01-29T09:24:47.595Z,14.30
2023-01-29T09:27:14.558Z,14.30
2023-01-29T09:29:41.475Z,10.50
2023-01-29T09:32:08.438Z,11.30
2023-01-29T09:34:35.800Z,9.80
2023-01-29T09:37:02.721Z,11.60
2023-01-29T09:39:29.788Z,12.50
2023-01-29T09:42:10.845Z,13.60
2023-01-29T09:44:43.598Z,9.90
2023-01-29T09:47:15.452Z,12.10
2023-01-29T09:49:51.451Z,13.90
2023-01-29T09:52:30.405Z,12.40
2023-01-29T09:55:01.118Z,13.20
2023-01-29T09:57:37.132Z,13.20
2023-01-29T10:00:04.622Z,12.50
2023-01-29T10:02:47.829Z,12.50
2023-01-29T10:05:45.660Z,15.00
2023-01-29T10:08:51.099Z,11.30
2023-01-29T10:11:32.972Z,14.40
2023-01-29T10:14:21.082Z,11.70
2023-01-29T10:17:09.763Z,13.70
2023-01-29T10:19:57.115Z,13.20
2023-01-29T10:22:32.779Z,11.30
2023-01-29T10:25:04.620Z,13.20
2023-01-29T10:27:34.237Z,14.20
2023-01-29T10:30:08.992Z,13.00
2023-01-29T10:32:36.994Z,10.40
2023-01-29T10:35:26.457Z,14.00
2023-01-29T10:37:53.958Z,12.10
2023-01-29T10:40:27.112Z,13.00
2023-01-29T10:42:59.981Z,11.20
2023-01-29T10:46:09.158Z,10.70
2023-01-29T10:48:55.671Z,10.70
2023-01-29T10:51:48.620Z,13.50
2023-01-29T10:54:23.268Z,14.60
2023-01-29T10:57:19.883Z,11.50
2023-01-29T10:59:46.804Z,10.50
2023-01-29T11:02:17.522Z,13.10
2023-01-29T11:04:44.985Z,14.10
2023-01-29T11:07:13.602Z,12.70
2023-01-29T11:09:51.906Z,12.70
2023-01-29T11:12:22.798Z,12.00
2023-01-29T11:14:57.519Z,13.00
2023-01-29T11:17:25.867Z,14.40
2023-01-29T11:19:55.191Z,13.00
2023-01-29T11:22:27.332Z,12.80
2023-01-29T11:25:17.751Z,12.00
2023-01-29T11:27:48.811Z,13.30
2023-01-29T11:30:33.479Z,13.90
2023-01-29T11:33:22.992Z,14.90
2023-01-29T11:35:52.038Z,13.50
2023-01-29T11:38:23.840Z,12.30
2023-01-29T11:40:51.401Z,12.20
2023-01-29T11:43:27.139Z,12.70
2023-01-29T11:45:57.906Z,12.50
2023-01-29T11:48:33.288Z,13.90
2023-01-29T11:51:00.892Z,13.80
2023-01-29T11:53:30.817Z,14.30
2023-01-29T11:55:58.276Z,16.10
2023-01-29T11:58:34.323Z,11.70
2023-01-29T12:01:02.475Z,9.70
2023-01-29T12:03:43.151Z,10.60
2023-01-29T12:06:22.516Z,10.30
2023-01-29T12:08:59.097Z,13.20
2023-01-29T12:11:31.459Z,11.70
2023-01-29T12:14:06.087Z,11.90
2023-01-29T12:16:39.425Z,11.90
2023-01-29T12:19:15.247Z,16.30
2023-01-29T12:21:58.701Z,12.80
2023-01-29T12:24:34.827Z,12.20
2023-01-29T12:27:20.896Z,12.90
2023-01-29T12:29:52.329Z,12.00
2023-01-29T12:32:31.824Z,12.20
2023-01-29T12:35:09.754Z,10.30
2023-01-29T12:37:39.625Z,10.90
2023-01-29T12:40:15.634Z,13.40
2023-01-29T12:42:51.503Z,12.60
2023-01-29T12:45:21.739Z,12.20
2023-01-29T12:47:57.082Z,11.60
2023-01-29T12:50:32.007Z,11.30
2023-01-29T12:53:22.849Z,14.20
2023-01-29T12:56:03.839Z,11.10
2023-01-29T13:01:42.709Z,10.70
2023-01-29T13:04:27.873Z,10.10
2023-01-29T13:07:03.951Z,11.70
2023-01-29T13:09:33.152Z,9.70
2023-01-29T13:12:04.812Z,11.80
2023-01-29T13:14:44.669Z,11.30
2023-01-29T13:17:26.936Z,11.30
2023-01-29T13:19:57.912Z,9.80
2023-01-29T13:25:04.595Z,10.20
2023-01-29T13:27:34.374Z,11.60
2023-01-29T13:30:01.839Z,12.50
2023-01-29T13:32:31.344Z,11.20
2023-01-29T13:35:03.817Z,12.20
2023-01-29T13:37:34.171Z,10.70
2023-01-29T13:40:03.897Z,11.00
2023-01-29T13:42:38.422Z,11.90
2023-01-29T13:45:08.201Z,10.00
2023-01-29T13:47:37.608Z,11.70
2023-01-29T13:50:07.820Z,10.30
2023-01-29T13:52:42.718Z,12.00
2023-01-29T13:55:20.714Z,13.10
2023-01-29T13:57:55.793Z,11.10
2023-01-29T14:00:30.506Z,12.40
2023-01-29T14:03:00.484Z,11.70
2023-01-29T14:05:31.758Z,11.30
2023-01-29T14:08:01.627Z,13.40
2023-01-29T14:10:31.343Z,14.40
2023-01-29T14:13:04.391Z,10.90
2023-01-29T14:15:36.691Z,10.50
2023-01-29T14:18:08.493Z,11.90
2023-01-29T14:20:45.993Z,10.20
2023-01-29T14:23:30.858Z,10.40
2023-01-29T14:26:02.031Z,10.40
2023-01-29T14:28:32.585Z,11.00
2023-01-29T14:31:00.775Z,9.50
2023-01-29T14:33:38.261Z,9.50
2023-01-29T14:36:10.838Z,8.10
2023-01-29T14:38:39.604Z,8.40
2023-01-29T14:41:29.985Z,9.00
2023-01-29T14:44:34.490Z,10.90
2023-01-29T14:47:01.576Z,7.30
2023-01-29T14:49:57.826Z,9.10
2023-01-29T14:52:35.503Z,10.30
2023-01-29T14:55:06.568Z,10.30
2023-01-29T15:00:15.751Z,11.40
2023-01-29T15:02:44.310Z,11.10
2023-01-29T15:05:18.099Z,9.40
2023-01-29T15:08:04.230Z,9.10
2023-01-29T15:10:31.140Z,6.90
2023-01-29T15:13:37.493Z,12.20
2023-01-29T15:16:14.263Z,9.00
2023-01-29T15:18:42.788Z,7.70
2023-01-29T15:21:15.650Z,9.00
2023-01-29T15:23:43.701Z,8.50
2023-01-29T15:26:17.007Z,10.70
2023-01-29T15:28:47.177Z,9.70
2023-01-29T15:31:19.937Z,9.60
2023-01-29T15:33:50.832Z,8.90
2023-01-29T15:36:28.497Z,10.70
2023-01-29T15:39:15.020Z,9.90
2023-01-29T15:41:43.593Z,9.80
2023-01-29T15:44:43.485Z,7.50
2023-01-29T15:47:10.542Z,8.60
2023-01-29T15:49:39.683Z,13.60
2023-01-29T15:52:15.501Z,11.70
2023-01-29T15:54:43.671Z,12.10
2023-01-29T15:57:22.926Z,13.00
2023-01-29T15:59:51.926Z,9.10
2023-01-29T16:02:34.251Z,8.50
2023-01-29T16:05:03.239Z,8.30
2023-01-29T16:07:31.397Z,7.80
2023-01-29T16:09:59.162Z,7.80
2023-01-29T16:12:27.495Z,5.70
2023-01-29T16:14:55.525Z,6.90
2023-01-29T16:17:29.721Z,8.50
2023-01-29T16:19:58.878Z,8.10
2023-01-29T16:22:31.814Z,9.30
2023-01-29T16:25:04.557Z,8.80
2023-01-29T16:27:33.379Z,8.00
2023-01-29T16:30:01.617Z,7.90
2023-01-29T16:32:29.979Z,7.20
2023-01-29T16:35:00.480Z,9.40
2023-01-29T16:37:31.542Z,10.00
2023-01-29T16:42:29.722Z,10.50
2023-01-29T16:45:26.141Z,8.60
2023-01-29T16:48:38.920Z,7.60
2023-01-29T16:51:13.581Z,12.10
2023-01-29T16:53:54.489Z,10.30
2023-01-29T16:58:53.947Z,8.50
2023-01-29T17:01:24.458Z,8.30
2023-01-29T17:04:17.331Z,7.70
2023-01-29T17:06:47.940Z,7.70
2023-01-29T17:09:27.229Z,9.90
2023-01-29T17:12:01.185Z,10.60
2023-01-29T17:14:31.216Z,8.80
2023-01-29T17:17:07.118Z,8.70
2023-01-29T17:19:34.065Z,9.60
2023-01-29T17:22:04.217Z,8.40
2023-01-29T17:24:31.530Z,7.50
2023-01-29T17:27:00.581Z,8.50
2023-01-29T17:29:30.998Z,7.50
2023-01-29T17:31:59.575Z,11.40
2023-01-29T17:34:26.582Z,11.60
2023-01-29T17:36:53.591Z,9.40
2023-01-29T17:39:23.509Z,6.80
2023-01-29T17:41:55.661Z,9.40
2023-01-29T17:44:25.549Z,7.90
2023-01-29T17:46:52.955Z,7.40
2023-01-29T17:49:27.620Z,9.80
2023-01-29T17:51:56.199Z,9.10
2023-01-29T17:54:25.030Z,9.00
2023-01-29T17:56:52.815Z,8.20
2023-01-29T17:59:24.876Z,10.50
2023-01-29T18:01:52.563Z,7.40
2023-01-29T18:04:20.316Z,9.20
2023-01-29T18:06:50.059Z,8.70
2023-01-29T18:09:22.185Z,8.30
2023-01-29T18:11:50.462Z,8.90
2023-01-29T18:14:17.629Z,9.40
2023-01-29T18:16:45.109Z,9.00
2023-01-29T18:19:15.303Z,9.50
2023-01-29T18:21:42.511Z,7.50
2023-01-29T18:24:09.594Z,8.20
2023-01-29T18:26:37.725Z,10.30
2023-01-29T18:29:05.064Z,7.80
2023-01-29T18:31:32.309Z,9.00
2023-01-29T18:33:59.352Z,7.90
2023-01-29T18:36:26.308Z,8.60
2023-01-29T18:38:53.561Z,10.10
2023-01-29T18:41:20.724Z,11.30
2023-01-29T18:43:47.770Z,8.40
2023-01-29T18:46:14.906Z,7.90
2023-01-29T18:48:42.969Z,8.90
2023-01-29T18:51:10.532Z,8.10
2023-01-29T18:53:37.877Z,9.20
2023-01-29T18:56:07.145Z,8.20
2023-01-29T18:58:36.840Z,10.10
2023-01-29T19:01:08.601Z,8.90
2023-01-29T19:03:36.031Z,9.90
2023-01-29T19:06:05.265Z,10.40
2023-01-29T19:08:32.376Z,9.70
2023-01-29T19:11:01.903Z,11.10
2023-01-29T19:13:30.255Z,11.30
2023-01-29T19:15:57.526Z,9.60
2023-01-29T19:18:27.646Z,10.60
2023-01-29T19:20:54.814Z,8.80
2023-01-29T19:23:21.941Z,7.60
2023-01-29T19:25:49.049Z,8.90
2023-01-29T19:28:17.044Z,9.50
2023-01-29T19:30:44.244Z,8.60
2023-01-29T19:33:11.494Z,8.30
2023-01-29T19:35:38.620Z,6.20
2023-01-29T19:38:06.020Z,10.50
2023-01-29T19:40:33.229Z,8.30
2023-01-29T19:43:00.255Z,10.00
2023-01-29T19:45:49.010Z,8.70
2023-01-29T19:48:22.014Z,6.80
2023-01-29T19:51:00.676Z,9.10
2023-01-29T19:53:28.995Z,7.50
2023-01-29T19:56:16.982Z,8.00
2023-01-29T19:58:44.326Z,8.50
2023-01-29T20:01:21.081Z,6.80
2023-01-29T20:03:49.089Z,7.70
2023-01-29T20:06:19.229Z,8.20
2023-01-29T20:08:46.273Z,7.20
2023-01-29T20:11:14.692Z,7.20
2023-01-29T20:13:41.964Z,8.60
2023-01-29T20:16:09.078Z,8.90
2023-01-29T20:18:36.106Z,6.80
2023-01-29T20:21:08.763Z,8.50
2023-01-29T20:23:38.625Z,7.30
2023-01-29T20:26:07.652Z,8.60
2023-01-29T20:28:35.661Z,6.90
2023-01-29T20:31:04.409Z,9.00
2023-01-29T20:33:32.935Z,8.90
2023-01-29T20:36:03.269Z,10.90
2023-01-29T20:38:31.106Z,8.70
2023-01-29T20:41:16.144Z,9.90
2023-01-29T20:43:44.091Z,11.10
2023-01-29T20:46:11.899Z,9.60
2023-01-29T20:48:39.537Z,9.40
2023-01-29T20:51:09.275Z,8.40
2023-01-29T20:53:36.855Z,9.10
2023-01-29T20:56:05.009Z,7.70
2023-01-29T20:58:32.400Z,10.00
2023-01-29T21:00:59.749Z,9.90
2023-01-29T21:03:26.739Z,8.50
2023-01-29T21:05:53.859Z,8.60
2023-01-29T21:08:20.759Z,8.90
2023-01-29T21:10:51.330Z,9.20
2023-01-29T21:13:18.670Z,8.20
2023-01-29T21:15:46.181Z,8.10
2023-01-29T21:18:13.115Z,10.30
2023-01-29T21:20:39.996Z,8.40
2023-01-29T21:23:07.394Z,8.60
2023-01-29T21:25:34.483Z,9.50
2023-01-29T21:28:03.797Z,7.70
2023-01-29T21:30:31.056Z,6.40
2023-01-29T21:32:58.107Z,7.90
2023-01-29T21:35:25.636Z,7.60
2023-01-29T21:37:52.665Z,7.40
2023-01-29T21:40:20.804Z,9.70
2023-01-29T21:43:06.604Z,8.30
2023-01-29T21:45:35.595Z,8.00
2023-01-29T21:48:03.030Z,7.30
2023-01-29T21:50:30.177Z,8.10
2023-01-29T21:52:57.254Z,8.00
2023-01-29T21:55:24.370Z,7.40
2023-01-29T21:57:51.586Z,7.60
2023-01-29T22:00:19.040Z,6.10
2023-01-29T22:02:46.755Z,7.80
2023-01-29T22:05:19.504Z,8.10
2023-01-29T22:07:48.625Z,6.80
2023-01-29T22:10:17.593Z,8.90
2023-01-29T22:12:45.124Z,6.40
2023-01-29T22:15:12.913Z,7.50
2023-01-29T22:17:40.910Z,7.90
2023-01-29T22:20:13.056Z,7.50
2023-01-29T22:22:40.110Z,6.90
2023-01-29T22:25:08.135Z,6.80
2023-01-29T22:27:35.157Z,5.20
2023-01-29T22:30:03.644Z,8.00
2023-01-29T22:32:32.198Z,8.70
2023-01-29T22:34:59.107Z,9.40
2023-01-29T22:37:26.159Z,7.80
2023-01-29T22:39:53.066Z,8.30
2023-01-29T22:42:20.433Z,7.10
2023-01-29T22:44:47.942Z,8.30
2023-01-29T22:47:15.175Z,6.30
2023-01-29T22:49:44.010Z,7.90
2023-01-29T22:52:11.351Z,7.20
2023-01-29T22:54:40.221Z,6.20
2023-01-29T22:57:10.643Z,7.40
2023-01-29T22:59:37.870Z,7.60
2023-01-29T23:02:05.886Z,7.90
2023-01-29T23:04:33.090Z,6.50
2023-01-29T23:07:00.090Z,7.80
2023-01-29T23:09:27.019Z,7.40
2023-01-29T23:11:54.146Z,8.50
2023-01-29T23:14:21.209Z,9.20
2023-01-29T23:16:48.188Z,6.20
2023-01-29T23:19:15.225Z,7.50
2023-01-29T23:21:42.156Z,6.10
2023-01-29T23:24:09.808Z,9.10
2023-01-29T23:26:55.292Z,8.50
2023-01-29T23:29:22.548Z,8.70
2023-01-29T23:31:49.687Z,6.40
2023-01-29T23:34:16.777Z,6.50
2023-01-29T23:36:43.966Z,7.20
2023-01-29T23:39:11.168Z,10.20
2023-01-29T23:41:38.099Z,8.20
2023-01-29T23:44:05.250Z,7.10
2023-01-29T23:46:32.339Z,8.40
2023-01-29T23:48:59.499Z,8.10
2023-01-29T23:51:26.538Z,9.90
2023-01-29T23:53:53.722Z,7.70
2023-01-29T23:56:20.691Z,9.10
2023-01-29T23:58:47.664Z,6.90
